Time;durP1;ratioP1;P1;durP2;ratioP2;P2;SDS_P1;SDS_P2;PMS_P1;PMS_P2;Temp;Humidity;BMP_temperature;BMP_pressure;BME280_temperature;BME280_humidity;BME280_pressure;Samples;Min_cycle;Max_cycle;Signal;HPM_P1;HPM_P2
2022/04/07 00:00:42;;;;;;;;;0.75;0.75;;;;;13.99;59.82;99634.13;5058557;28;45323;-67
2022/04/07 00:03:07;;;;;;;;;1.00;1.00;;;;;14.04;60.03;99636.50;5060694;28;45483;-67
2022/04/07 00:05:32;;;;;;;;;1.00;1.00;;;;;14.03;59.63;99624.03;5060389;28;45339;-67
2022/04/07 00:07:58;;;;;;;;;1.00;1.00;;;;;14.01;59.57;99632.19;5060984;28;46128;-67
2022/04/07 00:10:23;;;;;;;;;0.00;0.00;;;;;13.99;59.75;99615.34;5061067;28;45256;-67
2022/04/07 00:12:48;;;;;;;;;2.75;1.00;;;;;13.95;59.73;99597.72;5060816;28;45299;-67
2022/04/07 00:15:14;;;;;;;;;1.00;0.00;;;;;13.96;59.95;99604.78;5052607;28;45371;-67
2022/04/07 00:17:40;;;;;;;;;0.50;0.50;;;;;13.95;59.86;99603.09;5061008;28;45937;-67
2022/04/07 00:20:06;;;;;;;;;0.00;0.00;;;;;13.99;59.74;99601.91;5060613;28;45252;-67
2022/04/07 00:22:31;;;;;;;;;2.00;1.00;;;;;14.00;59.69;99597.41;5047474;28;45249;-67
2022/04/07 00:24:56;;;;;;;;;2.25;1.00;;;;;14.00;59.77;99603.66;5053628;28;45389;-67
2022/04/07 00:27:21;;;;;;;;;0.00;0.00;;;;;14.00;59.93;99600.97;5060100;28;46136;-67
2022/04/07 00:29:47;;;;;;;;;1.00;1.00;;;;;13.99;59.75;99598.38;5060741;28;45220;-67
2022/04/07 00:32:12;;;;;;;;;0.25;0.25;;;;;13.98;59.96;99605.59;5060005;28;45336;-67
2022/04/07 00:34:39;;;;;;;;;1.00;1.00;;;;;13.93;59.92;99580.84;5059984;28;45334;-67
2022/04/07 00:37:05;;;;;;;;;1.00;1.00;;;;;13.94;59.70;99581.72;5060408;28;46316;-67
2022/04/07 00:39:30;;;;;;;;;1.00;1.00;;;;;13.89;59.99;99576.66;5059579;28;45272;-67
2022/04/07 00:41:55;;;;;;;;;0.00;0.00;;;;;13.88;60.05;99580.28;5060692;28;45421;-67
2022/04/07 00:44:22;;;;;;;;;2.00;1.00;;;;;13.93;59.72;99585.38;5059700;28;45318;-67
2022/04/07 00:46:49;;;;;;;;;2.00;0.75;;;;;13.87;60.15;99566.03;5055260;28;45333;-67
2022/04/07 00:49:14;;;;;;;;;1.00;1.00;;;;;13.88;59.73;99558.81;5060416;28;45255;-67
2022/04/07 00:51:42;;;;;;;;;1.75;1.75;;;;;13.85;60.01;99542.97;5060373;28;45252;-67
2022/04/07 00:54:09;;;;;;;;;1.00;1.00;;;;;13.88;59.67;99548.97;5057423;28;45260;-67
2022/04/07 00:56:36;;;;;;;;;1.00;1.00;;;;;13.89;59.33;99539.09;5047345;28;45460;-67
2022/04/07 00:59:04;;;;;;;;;1.00;0.00;;;;;13.83;59.91;99534.13;5060206;28;45561;-67
2022/04/07 01:01:30;;;;;;;;;2.25;1.25;;;;;13.85;59.45;99521.50;5060634;28;45353;-67
2022/04/07 01:03:57;;;;;;;;;1.75;1.00;;;;;13.87;59.40;99514.19;5064770;28;45632;-67
2022/04/07 01:06:22;;;;;;;;;4.25;4.00;;;;;13.85;59.33;99513.44;5059710;28;46170;-67
2022/04/07 01:08:48;;;;;;;;;2.25;1.25;;;;;13.87;59.11;99508.84;5073429;28;45371;-68
2022/04/07 01:11:13;;;;;;;;;1.50;1.50;;;;;13.91;59.40;99513.03;5060551;28;45452;-67
2022/04/07 01:13:51;;;;;;;;;1.00;1.00;;;;;13.83;59.59;99492.09;5059810;28;45557;-67
2022/04/07 01:16:18;;;;;;;;;2.00;0.50;;;;;13.83;59.25;99484.03;5059329;28;45390;-67
2022/04/07 01:18:45;;;;;;;;;2.00;1.00;;;;;13.83;59.68;99489.41;5059756;28;45329;-67
2022/04/07 01:21:11;;;;;;;;;1.50;0.00;;;;;13.79;59.85;99477.16;5051472;28;45502;-67
2022/04/07 01:23:38;;;;;;;;;1.00;0.75;;;;;13.81;59.88;99485.09;5054567;28;45492;-67
2022/04/07 01:26:09;;;;;;;;;0.00;0.00;;;;;13.82;59.47;99482.31;5048791;28;46528;-67
2022/04/07 01:28:34;;;;;;;;;3.25;0.00;;;;;13.76;59.93;99481.84;5056098;28;45335;-67
2022/04/07 01:31:00;;;;;;;;;2.00;1.00;;;;;13.76;59.84;99474.66;5060097;28;45446;-67
2022/04/07 01:33:26;;;;;;;;;1.00;1.00;;;;;13.75;59.78;99480.13;5059031;28;45653;-67
2022/04/07 01:35:52;;;;;;;;;1.00;1.00;;;;;13.77;60.02;99480.91;5059159;28;46007;-67
2022/04/07 01:38:19;;;;;;;;;2.00;0.00;;;;;13.72;60.11;99478.53;5059674;28;45512;-67
2022/04/07 01:40:47;;;;;;;;;0.00;0.00;;;;;13.72;59.77;99478.53;5060117;28;45327;-67
2022/04/07 01:43:14;;;;;;;;;0.00;0.00;;;;;13.73;60.29;99476.69;5059477;28;45434;-67
2022/04/07 01:45:40;;;;;;;;;0.00;0.00;;;;;13.68;60.15;99469.81;5048483;28;46287;-67
2022/04/07 01:48:07;;;;;;;;;2.00;0.25;;;;;13.71;60.38;99466.94;5056902;28;45592;-67
2022/04/07 01:50:33;;;;;;;;;2.00;0.00;;;;;13.72;60.25;99465.13;5059863;28;45575;-67
2022/04/07 01:52:59;;;;;;;;;2.00;1.00;;;;;13.72;60.56;99454.38;5059469;28;45236;-67
2022/04/07 01:55:26;;;;;;;;;1.50;1.00;;;;;13.69;60.34;99460.78;5048263;28;45330;-67
2022/04/07 01:57:51;;;;;;;;;0.00;0.00;;;;;13.73;61.19;99463.28;5057278;28;45395;-67
2022/04/07 02:00:17;;;;;;;;;1.00;1.00;;;;;13.74;61.21;99456.97;5059888;28;45330;-67
2022/04/07 02:02:42;;;;;;;;;2.00;0.00;;;;;13.73;61.79;99466.81;5059492;28;45170;-67
2022/04/07 02:05:10;;;;;;;;;1.00;1.00;;;;;13.73;61.83;99455.22;5058740;28;46372;-67
2022/04/07 02:07:39;;;;;;;;;1.00;1.00;;;;;13.74;61.70;99446.25;5047470;28;45292;-67
2022/04/07 02:10:06;;;;;;;;;1.00;1.00;;;;;13.73;61.90;99441.81;5059502;28;45374;-67
2022/04/07 02:12:33;;;;;;;;;1.00;1.00;;;;;13.74;61.82;99447.09;5059103;28;45603;-67
2022/04/07 02:15:02;;;;;;;;;0.00;0.00;;;;;13.77;61.97;99446.03;5063638;28;46099;-67
2022/04/07 02:17:27;;;;;;;;;0.50;0.50;;;;;13.76;62.02;99441.63;5068139;28;45533;-67
2022/04/07 02:19:54;;;;;;;;;1.00;0.50;;;;;13.76;62.39;99417.50;5062994;28;45347;-67
2022/04/07 02:22:20;;;;;;;;;1.00;0.00;;;;;13.74;62.19;99425.63;5064845;28;45601;-67
2022/04/07 02:24:47;;;;;;;;;1.00;1.00;;;;;13.75;62.08;99429.16;5065585;28;46991;-67
2022/04/07 02:27:13;;;;;;;;;0.75;0.75;;;;;13.74;62.25;99414.06;5084296;27;45420;-67
2022/04/07 02:29:40;;;;;;;;;1.50;1.50;;;;;13.75;61.97;99397.00;5068591;28;45465;-67
2022/04/07 02:32:06;;;;;;;;;1.50;1.00;;;;;13.72;62.27;99390.03;5067217;28;45355;-67
2022/04/07 02:34:32;;;;;;;;;1.25;1.25;;;;;13.68;62.64;99389.38;5069715;27;45540;-67
2022/04/07 02:36:57;;;;;;;;;2.00;0.50;;;;;13.73;62.94;99385.50;5072468;28;45471;-67
2022/04/07 02:39:22;;;;;;;;;1.75;1.00;;;;;13.73;63.60;99372.09;5072334;28;45468;-67
2022/04/07 02:41:48;;;;;;;;;2.00;1.00;;;;;13.66;63.16;99361.78;5070020;28;45551;-67
2022/04/07 02:44:13;;;;;;;;;2.00;2.00;;;;;13.67;63.39;99360.81;5070115;28;45345;-67
2022/04/07 02:46:39;;;;;;;;;1.75;1.00;;;;;13.70;63.21;99355.25;5081593;27;45385;-68
2022/04/07 02:49:05;;;;;;;;;1.50;1.00;;;;;13.70;63.32;99357.09;5067332;28;45608;-67
2022/04/07 02:51:31;;;;;;;;;1.25;1.00;;;;;13.67;63.59;99347.41;5070948;28;45627;-67
2022/04/07 02:53:58;;;;;;;;;1.50;1.50;;;;;13.69;63.93;99333.91;5086227;27;47311;-67
2022/04/07 02:56:27;;;;;;;;;1.75;1.75;;;;;13.68;63.83;99343.78;5072205;27;45471;-67
2022/04/07 02:58:53;;;;;;;;;2.00;1.00;;;;;13.68;63.71;99334.88;5065821;28;45410;-67
2022/04/07 03:01:18;;;;;;;;;0.75;0.75;;;;;13.65;63.75;99324.38;5062221;28;45432;-67
2022/04/07 03:03:44;;;;;;;;;1.00;1.00;;;;;13.69;64.04;99312.47;5065449;28;45413;-67
2022/04/07 03:06:09;;;;;;;;;3.25;2.00;;;;;13.67;64.22;99314.41;5067655;28;45438;-67
2022/04/07 03:08:35;;;;;;;;;1.00;1.00;;;;;13.71;64.23;99305.16;5060112;28;45362;-67
2022/04/07 03:11:01;;;;;;;;;0.75;0.75;;;;;13.71;64.14;99295.31;5068249;28;45539;-67
2022/04/07 03:13:27;;;;;;;;;2.00;1.00;;;;;13.72;64.13;99290.81;5058945;28;48437;-67
2022/04/07 03:15:53;;;;;;;;;2.00;1.25;;;;;13.73;64.21;99288.97;5060620;28;45416;-67
2022/04/07 03:18:19;;;;;;;;;2.00;1.00;;;;;13.71;64.43;99283.72;5060520;28;45158;-67
2022/04/07 03:20:44;;;;;;;;;1.50;1.00;;;;;13.67;64.43;99269.66;5059086;28;45217;-68
2022/04/07 03:23:10;;;;;;;;;2.00;1.75;;;;;13.67;64.55;99269.66;5059495;28;45301;-67
2022/04/07 03:25:36;;;;;;;;;3.00;1.75;;;;;13.66;64.47;99265.25;5059407;28;45478;-67
2022/04/07 03:28:03;;;;;;;;;1.25;1.25;;;;;13.68;64.51;99266.03;5060319;28;45528;-67
2022/04/07 03:30:28;;;;;;;;;1.50;1.00;;;;;13.69;64.65;99246.28;5060263;28;45646;-67
2022/04/07 03:32:53;;;;;;;;;0.50;0.00;;;;;13.69;64.69;99235.53;5057035;28;45636;-67
2022/04/07 03:35:19;;;;;;;;;2.00;1.50;;;;;13.71;64.92;99222.03;5058909;28;45524;-67
2022/04/07 03:37:44;;;;;;;;;2.25;2.00;;;;;13.69;64.80;99218.59;5060315;28;45385;-67
2022/04/07 03:40:10;;;;;;;;;2.25;2.25;;;;;13.67;64.88;99209.81;5059403;28;45311;-67
2022/04/07 03:42:36;;;;;;;;;3.00;1.00;;;;;13.71;64.92;99214.00;5059236;28;46212;-67
2022/04/07 03:45:01;;;;;;;;;1.25;1.00;;;;;13.68;65.06;99182.91;5055330;28;45315;-67
2022/04/07 03:47:26;;;;;;;;;3.00;2.00;;;;;13.73;65.02;99185.22;5053156;28;45156;-67
2022/04/07 03:49:52;;;;;;;;;2.75;1.75;;;;;13.73;65.05;99181.72;5061089;28;45472;-67
2022/04/07 03:52:17;;;;;;;;;4.00;1.00;;;;;13.68;65.11;99163.25;5061259;28;45373;-67
2022/04/07 03:54:42;;;;;;;;;0.50;0.50;;;;;13.70;65.05;99166.72;5058183;28;45240;-67
2022/04/07 03:57:08;;;;;;;;;1.75;1.00;;;;;13.69;65.68;99148.88;5061591;28;45323;-67
2022/04/07 03:59:38;;;;;;;;;1.50;1.00;;;;;13.67;65.45;99149.00;5061117;28;45535;-67
2022/04/07 04:02:05;;;;;;;;;2.00;2.00;;;;;13.65;65.52;99137.53;5061112;28;46234;-67
2022/04/07 04:04:30;;;;;;;;;2.25;2.25;;;;;13.68;65.40;99142.69;5061363;28;45546;-67
2022/04/07 04:06:56;;;;;;;;;2.00;2.00;;;;;13.67;65.29;99124.03;5059415;28;46544;-67
2022/04/07 04:09:21;;;;;;;;;1.25;1.25;;;;;13.67;65.69;99127.53;5061073;28;45567;-67
2022/04/07 04:11:47;;;;;;;;;4.75;2.00;;;;;13.63;65.52;99098.38;5061316;28;45338;-68
2022/04/07 04:14:12;;;;;;;;;2.00;1.75;;;;;13.69;65.55;99116.72;5060895;28;45260;-67
2022/04/07 04:16:38;;;;;;;;;1.00;0.50;;;;;13.68;65.73;99112.31;5060581;28;45361;-67
2022/04/07 04:19:03;;;;;;;;;2.75;2.75;;;;;13.67;65.65;99105.25;5059676;28;45490;-67
2022/04/07 04:21:28;;;;;;;;;1.00;1.00;;;;;13.67;65.80;99094.53;5049214;28;45211;-67
2022/04/07 04:23:54;;;;;;;;;1.50;1.50;;;;;13.65;65.96;99101.81;5057961;28;45426;-67
2022/04/07 04:26:19;;;;;;;;;1.00;1.00;;;;;13.65;65.72;99093.78;5054211;28;45391;-67
2022/04/07 04:28:44;;;;;;;;;1.00;1.00;;;;;13.63;65.75;99095.69;5060560;28;45651;-67
2022/04/07 04:31:10;;;;;;;;;2.75;2.00;;;;;13.63;65.98;99096.56;5060787;28;45362;-67
2022/04/07 04:33:35;;;;;;;;;1.75;1.75;;;;;13.65;65.91;99091.09;5058978;28;45243;-67
2022/04/07 04:36:00;;;;;;;;;1.75;1.00;;;;;13.64;66.01;99090.22;5060773;28;45228;-67
2022/04/07 04:38:26;;;;;;;;;4.00;1.00;;;;;13.64;66.21;99079.50;5060645;28;45336;-67
2022/04/07 04:40:51;;;;;;;;;2.00;2.00;;;;;13.67;66.11;99081.13;5060643;28;46296;-67
2022/04/07 04:43:17;;;;;;;;;2.25;2.25;;;;;13.67;65.97;99090.00;5060561;28;45368;-67
2022/04/07 04:45:42;;;;;;;;;1.50;1.50;;;;;13.71;66.46;99094.19;5060734;28;45248;-67
2022/04/07 04:48:07;;;;;;;;;2.75;2.75;;;;;13.69;66.28;99085.38;5060345;28;45263;-67
2022/04/07 04:50:34;;;;;;;;;1.25;1.00;;;;;13.67;66.01;99075.75;5059147;28;47160;-67
2022/04/07 04:53:00;;;;;;;;;3.00;2.00;;;;;13.66;66.12;99069.50;5075425;28;45559;-68
2022/04/07 04:55:25;;;;;;;;;3.75;1.25;;;;;13.68;66.23;99070.28;5053537;28;45449;-67
2022/04/07 04:57:50;;;;;;;;;5.00;2.00;;;;;13.71;66.15;99063.81;5059034;28;45312;-67
2022/04/07 05:00:16;;;;;;;;;1.50;1.00;;;;;13.68;66.66;99058.69;5059457;28;45311;-67
2022/04/07 05:02:41;;;;;;;;;2.00;2.00;;;;;13.67;66.74;99057.84;5059355;28;45250;-67
2022/04/07 05:05:07;;;;;;;;;1.00;1.00;;;;;13.69;66.46;99063.94;5059524;28;45970;-67
2022/04/07 05:07:33;;;;;;;;;2.00;1.25;;;;;13.72;66.77;99062.88;5060011;28;45265;-67
2022/04/07 05:09:58;;;;;;;;;1.50;1.00;;;;;13.78;66.57;99061.56;5060203;28;46103;-66
2022/04/07 05:12:24;;;;;;;;;2.00;2.00;;;;;13.78;66.55;99059.75;5055113;28;45299;-65
2022/04/07 05:14:49;;;;;;;;;1.75;1.75;;;;;13.77;66.47;99052.66;5052745;28;45242;-65
2022/04/07 05:17:18;;;;;;;;;1.00;1.00;;;;;13.79;66.47;99055.25;5055877;28;45450;-65
2022/04/07 05:19:44;;;;;;;;;0.75;0.75;;;;;13.78;66.54;99032.06;5059605;28;46427;-65
2022/04/07 05:22:10;;;;;;;;;2.75;0.75;;;;;13.80;66.37;99036.34;5051572;28;45397;-64
2022/04/07 05:24:35;;;;;;;;;3.50;1.00;;;;;13.83;66.70;99043.31;5059040;28;45385;-65
2022/04/07 05:27:01;;;;;;;;;1.50;1.00;;;;;13.83;66.20;99036.13;5059688;28;45232;-65
2022/04/07 05:29:26;;;;;;;;;1.50;0.00;;;;;13.85;66.04;99023.47;5052736;28;45930;-65
2022/04/07 05:31:52;;;;;;;;;0.75;0.75;;;;;13.83;66.26;99019.16;5045800;28;45586;-64
2022/04/07 05:34:17;;;;;;;;;1.00;1.00;;;;;13.87;65.95;99013.47;5058244;28;45372;-65
2022/04/07 05:36:42;;;;;;;;;1.00;1.00;;;;;13.83;66.15;98995.91;5059144;28;45363;-65
2022/04/07 05:39:08;;;;;;;;;2.00;1.00;;;;;13.93;65.96;99014.00;5059234;28;46129;-65
2022/04/07 05:41:33;;;;;;;;;3.00;3.00;;;;;13.94;65.62;99007.66;5059345;28;45278;-64
2022/04/07 05:43:59;;;;;;;;;0.75;0.75;;;;;13.93;65.72;98989.84;5058958;28;45407;-64
2022/04/07 05:46:24;;;;;;;;;1.75;1.00;;;;;13.96;65.53;98998.53;5059382;28;45425;-64
2022/04/07 05:48:49;;;;;;;;;1.25;1.00;;;;;13.97;65.36;98997.56;5046914;28;46284;-65
2022/04/07 05:51:15;;;;;;;;;7.00;5.25;;;;;13.96;65.45;98987.78;5055660;28;45332;-64
2022/04/07 05:53:40;;;;;;;;;2.25;1.25;;;;;13.99;65.73;98994.78;5056840;28;45208;-64
2022/04/07 05:56:06;;;;;;;;;1.00;1.00;;;;;14.00;65.76;99004.50;5051656;28;45387;-64
2022/04/07 05:58:31;;;;;;;;;1.25;1.25;;;;;14.01;65.42;98992.81;5057379;28;46096;-65
2022/04/07 06:00:56;;;;;;;;;1.00;1.00;;;;;13.95;65.61;98988.78;5046619;28;45371;-64
2022/04/07 06:03:21;;;;;;;;;1.00;1.00;;;;;13.95;65.82;98980.72;5054190;28;45418;-65
2022/04/07 06:05:52;;;;;;;;;3.00;1.00;;;;;14.00;65.36;98994.66;5058739;28;45464;-64
2022/04/07 06:08:21;;;;;;;;;1.00;1.00;;;;;13.97;65.39;98986.00;5054617;28;46164;-64
2022/04/07 06:10:47;;;;;;;;;3.00;1.75;;;;;14.00;65.29;98980.38;5061018;28;45422;-64
2022/04/07 06:13:14;;;;;;;;;1.75;1.75;;;;;13.99;65.25;98984.88;5062907;28;45524;-64
2022/04/07 06:15:40;;;;;;;;;1.00;1.00;;;;;14.00;65.18;98989.28;5062763;28;45337;-65
2022/04/07 06:18:08;;;;;;;;;4.00;2.00;;;;;14.02;65.28;98995.41;5062738;28;46105;-65
2022/04/07 06:20:34;;;;;;;;;1.75;1.00;;;;;14.00;65.05;98991.09;5062607;28;45275;-65
2022/04/07 06:23:00;;;;;;;;;2.25;2.00;;;;;14.04;65.00;98989.91;5062545;28;45446;-64
2022/04/07 06:25:26;;;;;;;;;2.00;2.00;;;;;14.03;65.01;98982.81;5057333;28;45592;-64
2022/04/07 06:27:52;;;;;;;;;1.25;1.00;;;;;14.02;65.14;98989.19;5062029;28;46201;-65
2022/04/07 06:30:19;;;;;;;;;3.00;1.00;;;;;14.05;64.90;98980.91;5062259;28;45366;-64
2022/04/07 06:32:46;;;;;;;;;1.00;1.00;;;;;14.06;64.88;98975.41;5057523;28;45464;-65
2022/04/07 06:35:14;;;;;;;;;1.75;1.25;;;;;14.07;64.96;98977.13;5062666;28;45614;-65
2022/04/07 06:37:56;;;;;;;;;0.00;0.00;;;;;14.04;64.92;98966.63;5062254;28;46249;-65
2022/04/07 06:40:25;;;;;;;;;1.00;0.50;;;;;14.08;64.91;98981.53;5062919;28;45334;-65
2022/04/07 06:42:53;;;;;;;;;1.00;1.00;;;;;14.07;64.77;98954.81;5061438;28;45416;-65
2022/04/07 06:45:19;;;;;;;;;1.00;1.00;;;;;14.05;64.88;98952.25;5055363;28;45459;-65
2022/04/07 06:47:45;;;;;;;;;2.00;1.00;;;;;14.08;65.11;98973.47;5048244;28;46233;-64
2022/04/07 06:50:13;;;;;;;;;0.00;0.00;;;;;14.08;65.29;98967.25;5060588;28;45382;-66
2022/04/07 06:52:40;;;;;;;;;2.00;0.50;;;;;14.07;65.39;98954.81;5051151;28;45267;-66
2022/04/07 06:55:06;;;;;;;;;3.00;2.00;;;;;14.06;65.62;98959.31;5052910;28;45306;-66
2022/04/07 06:57:31;;;;;;;;;2.50;1.00;;;;;14.04;65.60;98952.34;5051407;28;47536;-67
2022/04/07 06:59:57;;;;;;;;;1.00;1.00;;;;;14.00;65.80;98946.38;5045413;28;45333;-66
2022/04/07 07:02:23;;;;;;;;;1.00;1.00;;;;;14.02;65.63;98960.50;5059383;28;45308;-66
2022/04/07 07:04:48;;;;;;;;;2.00;2.00;;;;;14.04;65.60;98960.41;5062290;28;45362;-66
2022/04/07 07:07:13;;;;;;;;;0.00;0.00;;;;;14.03;65.69;98951.50;5059060;28;48225;-66
2022/04/07 07:09:39;;;;;;;;;2.00;0.75;;;;;14.07;65.86;98962.88;5061014;28;45322;-66
2022/04/07 07:12:04;;;;;;;;;1.50;1.00;;;;;14.05;65.91;98951.41;5063433;28;45746;-66
2022/04/07 07:14:30;;;;;;;;;1.75;1.75;;;;;14.09;66.12;98961.75;5062256;28;45323;-66
2022/04/07 07:16:55;;;;;;;;;0.75;0.00;;;;;14.08;65.91;98965.44;5060206;28;45455;-66
2022/04/07 07:19:26;;;;;;;;;0.75;0.75;;;;;14.08;66.27;98965.44;5061671;28;45306;-66
2022/04/07 07:21:54;;;;;;;;;1.00;1.00;;;;;14.10;66.01;98930.44;5060597;28;45287;-66
2022/04/07 07:24:20;;;;;;;;;0.00;0.00;;;;;14.07;66.02;98930.66;5060650;28;45272;-66
2022/04/07 07:26:46;;;;;;;;;0.25;0.25;;;;;14.12;65.82;98936.53;5057789;28;47742;-66
2022/04/07 07:29:11;;;;;;;;;0.50;0.50;;;;;14.12;66.05;98931.16;5055385;28;45184;-66
2022/04/07 07:31:37;;;;;;;;;0.25;0.25;;;;;14.18;66.28;98943.25;5058712;28;45341;-66
2022/04/07 07:34:05;;;;;;;;;0.00;0.00;;;;;14.18;66.24;98935.19;5056377;28;45508;-66
2022/04/07 07:36:31;;;;;;;;;1.00;1.00;;;;;14.17;66.51;98941.56;5055229;28;45643;-66
2022/04/07 07:38:56;;;;;;;;;0.00;0.00;;;;;14.15;66.30;98930.94;5060750;28;45336;-66
2022/04/07 07:41:22;;;;;;;;;0.00;0.00;;;;;14.17;66.33;98947.78;5066449;28;45435;-66
2022/04/07 07:43:47;;;;;;;;;2.00;0.25;;;;;14.21;66.35;98943.03;5068240;28;45374;-66
2022/04/07 07:46:12;;;;;;;;;0.50;0.00;;;;;14.21;66.29;98929.59;5067615;27;45306;-66
2022/04/07 07:48:38;;;;;;;;;0.00;0.00;;;;;14.19;66.36;98923.50;5050564;28;45481;-67
2022/04/07 07:51:03;;;;;;;;;0.25;0.25;;;;;14.18;66.69;98914.63;5054654;28;45483;-67
2022/04/07 07:53:29;;;;;;;;;1.00;1.00;;;;;14.19;66.51;98915.47;5055580;28;45342;-67
2022/04/07 07:55:55;;;;;;;;;0.00;0.00;;;;;14.23;66.55;98912.44;5058490;28;46952;-67
2022/04/07 07:58:23;;;;;;;;;0.00;0.00;;;;;14.25;67.00;98915.84;5047402;28;45383;-65
2022/04/07 08:00:48;;;;;;;;;0.00;0.00;;;;;14.28;66.85;98904.00;5055399;28;45239;-66
2022/04/07 08:03:14;;;;;;;;;0.00;0.00;;;;;14.30;67.09;98912.81;5051037;28;45319;-66
2022/04/07 08:05:39;;;;;;;;;3.00;1.75;;;;;14.33;67.21;98912.56;5058941;28;45280;-66
2022/04/07 08:08:05;;;;;;;;;1.75;1.75;;;;;14.30;66.84;98903.88;5044613;28;45474;-66
2022/04/07 08:10:30;;;;;;;;;1.00;0.00;;;;;14.34;67.12;98914.28;5052653;28;45364;-66
2022/04/07 08:12:56;;;;;;;;;0.00;0.00;;;;;14.36;67.11;98911.47;5058478;28;45658;-66
2022/04/07 08:15:23;;;;;;;;;0.00;0.00;;;;;14.36;67.31;98906.94;5051549;28;46137;-66
2022/04/07 08:17:48;;;;;;;;;0.50;0.00;;;;;14.37;67.33;98918.56;5058497;28;45307;-67
2022/04/07 08:20:13;;;;;;;;;1.00;0.00;;;;;14.39;67.33;98905.88;5067198;28;45846;-66
2022/04/07 08:22:39;;;;;;;;;0.00;0.00;;;;;14.42;66.97;98905.63;5054986;28;45630;-66
2022/04/07 08:25:05;;;;;;;;;0.00;0.00;;;;;14.46;67.52;98917.84;5059265;27;46208;-66
2022/04/07 08:27:30;;;;;;;;;0.00;0.00;;;;;14.45;67.32;98900.88;5071475;27;45496;-66
2022/04/07 08:29:55;;;;;;;;;0.00;0.00;;;;;14.46;67.41;98897.19;5052587;28;45426;-67
2022/04/07 08:32:21;;;;;;;;;0.75;0.00;;;;;14.50;67.02;98894.28;5057747;28;45402;-66
2022/04/07 08:34:46;;;;;;;;;0.00;0.00;;;;;14.51;67.36;98893.31;5059683;28;45406;-66
2022/04/07 08:37:12;;;;;;;;;0.00;0.00;;;;;14.57;67.00;98901.75;5059413;28;45474;-66
2022/04/07 08:39:37;;;;;;;;;0.00;0.00;;;;;14.63;67.11;98901.31;5065636;28;45348;-67
2022/04/07 08:42:04;;;;;;;;;0.00;0.00;;;;;14.68;67.20;98883.97;5058672;28;45664;-66
2022/04/07 08:44:31;;;;;;;;;0.00;0.00;;;;;14.70;66.92;98884.69;5059513;28;46670;-67
2022/04/07 08:46:58;;;;;;;;;0.00;0.00;;;;;14.76;67.19;98892.28;5058253;28;45776;-67
2022/04/07 08:49:25;;;;;;;;;0.00;0.00;;;;;14.79;66.83;98895.56;5058164;28;45465;-66
2022/04/07 08:51:52;;;;;;;;;0.00;0.00;;;;;14.80;66.27;98893.72;5040754;28;45833;-67
2022/04/07 08:54:18;;;;;;;;;0.00;0.00;;;;;14.85;66.34;98898.75;5053022;28;45267;-67
2022/04/07 08:56:44;;;;;;;;;0.00;0.00;;;;;14.89;66.65;98892.16;5059453;28;45546;-67
2022/04/07 08:59:10;;;;;;;;;0.00;0.00;;;;;14.92;66.54;98897.31;5059002;28;45255;-67
2022/04/07 09:01:35;;;;;;;;;0.00;0.00;;;;;14.94;66.48;98889.97;5058480;28;45742;-67
2022/04/07 09:04:00;;;;;;;;;0.00;0.00;;;;;14.98;66.37;98886.03;5058495;28;45712;-67
2022/04/07 09:06:28;;;;;;;;;0.00;0.00;;;;;15.05;66.23;98898.03;5056720;28;45711;-68
2022/04/07 09:08:53;;;;;;;;;0.75;0.00;;;;;15.08;66.35;98919.25;5055355;28;45365;-68
2022/04/07 09:11:19;;;;;;;;;0.00;0.00;;;;;15.08;65.93;98895.06;5054267;28;45548;-68
2022/04/07 09:13:45;;;;;;;;;0.00;0.00;;;;;15.11;66.09;98885.91;5052269;28;45373;-68
2022/04/07 09:16:15;;;;;;;;;0.00;0.00;;;;;15.16;65.93;98884.56;5051283;28;45421;-68
2022/04/07 09:18:45;;;;;;;;;0.25;0.25;;;;;15.23;66.29;98900.19;5043307;28;45330;-68
2022/04/07 09:21:22;;;;;;;;;0.00;0.00;;;;;15.27;66.21;98893.56;5057491;28;45319;-67
2022/04/07 09:23:47;;;;;;;;;0.00;0.00;;;;;15.29;65.94;98899.69;5042403;28;45497;-67
2022/04/07 09:26:15;;;;;;;;;0.00;0.00;;;;;15.33;65.91;98906.53;5051180;28;45349;-67
2022/04/07 09:28:41;;;;;;;;;0.00;0.00;;;;;15.34;66.07;98894.81;5050092;28;45776;-67
2022/04/07 09:31:11;;;;;;;;;0.00;0.00;;;;;15.37;66.13;98891.88;5057754;28;45372;-67
2022/04/07 09:33:37;;;;;;;;;0.00;0.00;;;;;15.38;66.28;98889.06;5058561;28;46067;-67
2022/04/07 09:36:02;;;;;;;;;0.00;0.00;;;;;15.45;66.23;98880.47;5070783;28;45360;-68
2022/04/07 09:38:30;;;;;;;;;0.00;0.00;;;;;15.47;65.78;98883.88;5055534;28;45744;-68
2022/04/07 09:41:09;;;;;;;;;0.00;0.00;;;;;15.50;65.82;98897.94;5053551;28;45460;-68
2022/04/07 09:43:45;;;;;;;;;0.00;0.00;;;;;15.55;65.38;98909.19;5057187;28;46410;-68
2022/04/07 09:46:14;;;;;;;;;0.00;0.00;;;;;15.56;65.46;98900.13;5065795;28;45513;-68
2022/04/07 09:48:57;;;;;;;;;0.00;0.00;;;;;15.61;65.06;98912.34;5062263;28;45351;-67
2022/04/07 09:51:22;;;;;;;;;0.00;0.00;;;;;15.63;65.00;98905.00;5054780;28;45775;-67
2022/04/07 09:53:50;;;;;;;;;0.00;0.00;;;;;15.66;64.88;98910.97;5058318;28;46079;-68
2022/04/07 09:56:18;;;;;;;;;0.00;0.00;;;;;15.70;64.91;98909.75;5053075;28;45771;-67
2022/04/07 09:58:44;;;;;;;;;2.00;0.00;;;;;15.74;64.71;98913.88;5061943;28;45357;-68
2022/04/07 10:01:10;;;;;;;;;1.50;0.00;;;;;15.77;64.45;98915.50;5054811;28;45505;-68
2022/04/07 10:03:36;;;;;;;;;0.00;0.00;;;;;15.81;64.53;98902.66;5051264;28;45401;-68
2022/04/07 10:06:01;;;;;;;;;0.00;0.00;;;;;15.84;64.19;98929.31;5049588;28;45818;-68
2022/04/07 10:08:27;;;;;;;;;0.00;0.00;;;;;15.83;63.84;98911.44;5069232;28;45670;-68
2022/04/07 10:10:54;;;;;;;;;0.00;0.00;;;;;15.89;64.13;98902.88;5055636;28;45597;-68
2022/04/07 10:13:20;;;;;;;;;0.00;0.00;;;;;15.89;64.15;98902.88;5059071;28;45339;-68
2022/04/07 10:15:46;;;;;;;;;0.00;0.00;;;;;15.90;64.34;98926.09;5053023;28;45537;-68
2022/04/07 10:18:24;;;;;;;;;0.00;0.00;;;;;15.91;64.71;98914.34;5058331;28;45429;-68
2022/04/07 10:20:54;;;;;;;;;0.00;0.00;;;;;15.95;64.92;98968.75;5053102;28;45492;-68
2022/04/07 10:23:33;;;;;;;;;0.00;0.00;;;;;15.91;65.74;98970.84;5055716;28;45347;-68
2022/04/07 10:26:01;;;;;;;;;1.00;0.00;;;;;15.86;65.82;98999.97;5053692;28;45412;-68
2022/04/07 10:28:27;;;;;;;;;0.00;0.00;;;;;15.84;66.38;99002.78;5058716;28;45383;-68
2022/04/07 10:30:53;;;;;;;;;0.00;0.00;;;;;15.80;65.82;99012.06;5059344;28;45365;-68
2022/04/07 10:33:34;;;;;;;;;0.00;0.00;;;;;15.81;65.80;99010.25;5057074;28;46167;-68
2022/04/07 10:36:06;;;;;;;;;0.00;0.00;;;;;15.78;66.35;99014.03;5058659;28;45355;-68
2022/04/07 10:38:42;;;;;;;;;1.00;0.00;;;;;15.75;65.83;99027.72;5058610;28;45430;-68
2022/04/07 10:41:08;;;;;;;;;0.00;0.00;;;;;15.71;65.97;99028.94;5058893;28;45377;-68
2022/04/07 10:43:38;;;;;;;;;0.00;0.00;;;;;15.68;65.78;99030.03;5052452;28;46454;-68
2022/04/07 10:46:06;;;;;;;;;0.00;0.00;;;;;15.66;65.75;99039.22;5048812;28;45253;-68
2022/04/07 10:48:33;;;;;;;;;0.00;0.00;;;;;15.65;65.42;99029.44;5056544;28;46022;-68
2022/04/07 10:51:07;;;;;;;;;0.00;0.00;;;;;15.65;65.04;99043.75;5055891;28;45558;-67
2022/04/07 10:53:38;;;;;;;;;0.75;0.00;;;;;15.64;64.43;99043.88;5058643;28;45322;-67
2022/04/07 10:56:24;;;;;;;;;0.00;0.00;;;;;15.64;64.33;99055.50;5058832;28;45456;-68
2022/04/07 10:58:52;;;;;;;;;0.00;0.00;;;;;15.62;63.74;99043.13;5061943;28;45223;-68
2022/04/07 11:01:53;;;;;;;;;0.00;0.00;;;;;15.66;63.66;99052.69;5063609;28;45476;-68
2022/04/07 11:07:02;;;;;;;;;0.00;0.00;;;;;15.69;62.87;99057.81;5060397;28;45528;-68
2022/04/07 11:09:49;;;;;;;;;1.00;0.00;;;;;15.67;63.14;99040.91;5061616;28;45540;-68
2022/04/07 11:12:23;;;;;;;;;0.00;0.00;;;;;15.71;62.81;99055.84;5060426;28;45609;-68
2022/04/07 11:14:54;;;;;;;;;0.00;0.00;;;;;15.71;63.15;99043.25;5060671;28;45400;-68
2022/04/07 11:17:33;;;;;;;;;0.00;0.00;;;;;15.78;63.03;99056.25;5058337;28;45303;-68
2022/04/07 11:20:15;;;;;;;;;0.00;0.00;;;;;15.81;62.60;99072.97;5049630;28;45239;-68
2022/04/07 11:23:04;;;;;;;;;0.00;0.00;;;;;15.84;62.03;99077.28;5059500;28;45424;-68
2022/04/07 11:25:31;;;;;;;;;0.00;0.00;;;;;15.84;62.20;99094.25;5048876;28;46223;-68
2022/04/07 11:28:11;;;;;;;;;0.00;0.00;;;;;15.86;61.94;99078.00;5061630;28;45581;-68
2022/04/07 11:31:00;;;;;;;;;0.00;0.00;;;;;15.85;61.41;99093.28;5061852;28;45414;-68
2022/04/07 11:33:28;;;;;;;;;0.00;0.00;;;;;15.87;61.22;99085.94;5061583;28;45307;-68
2022/04/07 11:35:59;;;;;;;;;0.00;0.00;;;;;15.89;61.11;99093.91;5050673;28;45318;-68